createdAt,value
2023-04-16T00:00:53.105Z,98.3299
2023-04-16T00:01:53.850Z,98.3065
2023-04-16T00:02:54.657Z,98.2547
2023-04-16T00:03:55.935Z,98.2210
2023-04-16T00:04:56.746Z,98.2123
2023-04-16T00:05:57.358Z,98.1956
2023-04-16T00:06:58.051Z,98.2073
2023-04-16T00:07:58.662Z,98.1906
2023-04-16T00:08:59.323Z,98.2072
2023-04-16T00:10:00.008Z,98.1717
2023-04-16T00:11:00.673Z,98.1699
2023-04-16T00:12:01.332Z,98.1695
2023-04-16T00:13:02.053Z,98.1765
2023-04-16T00:14:02.663Z,98.1860
2023-04-16T00:15:03.332Z,98.2110
2023-04-16T00:16:03.994Z,98.2333
2023-04-16T00:17:04.736Z,98.2473
2023-04-16T00:18:05.459Z,98.2395
2023-04-16T00:19:06.133Z,98.2337
2023-04-16T00:20:06.775Z,98.2073
2023-04-16T00:21:07.441Z,98.1021
2023-04-16T00:22:08.117Z,98.0280
2023-04-16T00:23:08.814Z,97.9643
2023-04-16T00:24:09.451Z,97.9569
2023-04-16T00:25:10.100Z,97.9252
2023-04-16T00:26:10.739Z,97.8996
2023-04-16T00:27:11.722Z,97.8651
2023-04-16T00:28:12.337Z,97.8249
2023-04-16T00:29:13.003Z,97.8214
2023-04-16T00:30:13.623Z,97.8151
2023-04-16T00:31:14.568Z,97.8089
2023-04-16T00:32:15.248Z,97.8318
2023-04-16T00:33:15.900Z,97.8473
2023-04-16T00:34:18.408Z,97.8647
2023-04-16T00:35:19.066Z,97.8968
2023-04-16T00:36:19.943Z,97.9472
2023-04-16T00:37:20.570Z,97.9981
2023-04-16T00:38:21.230Z,98.0442
2023-04-16T00:39:21.999Z,98.0735
2023-04-16T00:40:22.683Z,98.0835
2023-04-16T00:41:23.298Z,98.0854
2023-04-16T00:42:23.994Z,98.0671
2023-04-16T00:43:24.636Z,98.0825
2023-04-16T00:44:25.297Z,98.0790
2023-04-16T00:45:25.956Z,98.0649
2023-04-16T00:46:26.680Z,98.0749
2023-04-16T00:47:27.310Z,98.0766
2023-04-16T00:48:28.017Z,98.0643
2023-04-16T00:49:28.646Z,98.0746
2023-04-16T00:50:29.314Z,98.0966
2023-04-16T00:51:29.997Z,98.1241
2023-04-16T00:52:30.621Z,98.1240
2023-04-16T00:53:31.295Z,98.1242
2023-04-16T00:54:31.959Z,98.0673
2023-04-16T00:55:32.633Z,98.0191
2023-04-16T00:56:33.278Z,98.0229
2023-04-16T00:57:33.981Z,98.0298
2023-04-16T00:58:34.643Z,98.0520
2023-04-16T00:59:35.288Z,98.0462
2023-04-16T01:00:35.933Z,98.0222
2023-04-16T01:01:36.616Z,98.0329
2023-04-16T01:02:37.336Z,98.0596
2023-04-16T01:03:38.179Z,98.0874
2023-04-16T01:04:38.877Z,98.1211
2023-04-16T01:05:39.544Z,98.1457
2023-04-16T01:06:40.260Z,98.1425
2023-04-16T01:07:40.904Z,98.1633
2023-04-16T01:08:41.534Z,98.1812
2023-04-16T01:09:42.208Z,98.2117
2023-04-16T01:10:42.872Z,98.2364
2023-04-16T01:11:43.493Z,98.2738
2023-04-16T01:12:44.130Z,98.2823
2023-04-16T01:13:44.778Z,98.2921
2023-04-16T01:14:45.878Z,98.3250
2023-04-16T01:15:46.530Z,98.3098
2023-04-16T01:16:47.184Z,98.2842
2023-04-16T01:17:47.856Z,98.2870
2023-04-16T01:18:48.483Z,98.2914
2023-04-16T01:19:49.173Z,98.2887
2023-04-16T01:20:49.870Z,98.2595
2023-04-16T01:21:50.550Z,98.1925
2023-04-16T01:22:51.254Z,98.1090
2023-04-16T01:23:51.928Z,98.0155
2023-04-16T01:24:52.666Z,97.9539
2023-04-16T01:25:53.365Z,97.9387
2023-04-16T01:26:54.047Z,97.9482
2023-04-16T01:27:54.728Z,97.9702
2023-04-16T01:28:55.400Z,97.9688
2023-04-16T01:29:56.092Z,97.9871
2023-04-16T01:30:56.799Z,98.0050
2023-04-16T01:31:57.468Z,97.9974
2023-04-16T01:32:58.200Z,98.0259
2023-04-16T01:33:59.118Z,98.0435
2023-04-16T01:34:59.818Z,98.0698
2023-04-16T01:36:00.587Z,98.1166
2023-04-16T01:37:01.419Z,98.1541
2023-04-16T01:38:02.091Z,98.1310
2023-04-16T01:39:02.764Z,98.0354
2023-04-16T01:40:03.453Z,98.0466
2023-04-16T01:41:04.163Z,98.0683
2023-04-16T01:42:04.897Z,98.0712
2023-04-16T01:43:05.603Z,98.0529
2023-04-16T01:44:06.297Z,98.0841
2023-04-16T01:45:06.979Z,98.1172
2023-04-16T01:46:07.682Z,98.1666
2023-04-16T01:47:08.362Z,98.2133
2023-04-16T01:48:09.079Z,98.2103
2023-04-16T01:49:09.949Z,98.2059
2023-04-16T01:50:10.700Z,98.2348
2023-04-16T01:51:11.658Z,98.2656
2023-04-16T01:52:12.331Z,98.2883
2023-04-16T01:53:13.012Z,98.2903
2023-04-16T01:54:13.686Z,98.3039
2023-04-16T01:55:14.404Z,98.3213
2023-04-16T01:56:15.106Z,98.3262
2023-04-16T01:57:15.776Z,98.3422
2023-04-16T01:58:16.439Z,98.3534
2023-04-16T01:59:17.358Z,98.3543
2023-04-16T02:00:18.043Z,98.3320
2023-04-16T02:01:18.809Z,98.3143
2023-04-16T02:02:19.575Z,98.3357
2023-04-16T02:03:20.419Z,98.3851
2023-04-16T02:04:21.144Z,98.4319
2023-04-16T06:48:58.668Z,98.4341
2023-04-16T06:49:52.696Z,99.5886
2023-04-16T06:50:53.493Z,99.5713
2023-04-16T06:51:54.167Z,99.5856
2023-04-16T06:52:54.856Z,99.6203
2023-04-16T06:53:55.659Z,99.6451
2023-04-16T06:54:56.407Z,99.6604
2023-04-16T06:55:57.227Z,99.6675
2023-04-16T06:56:58.150Z,99.6852
2023-04-16T06:57:58.771Z,99.6976
2023-04-16T06:58:59.452Z,99.7075
2023-04-16T07:00:00.243Z,99.7348
2023-04-16T07:01:00.995Z,99.7658
2023-04-16T07:02:01.873Z,99.8095
2023-04-16T07:03:03.130Z,99.8437
2023-04-16T07:04:04.041Z,99.8716
2023-04-16T07:05:04.852Z,99.8828
2023-04-16T07:06:05.532Z,99.8685
2023-04-16T07:07:06.238Z,99.8858
2023-04-16T07:08:06.951Z,99.8578
2023-04-16T07:09:07.788Z,99.8461
2023-04-16T07:10:08.555Z,99.8384
2023-04-16T07:11:09.262Z,99.7795
2023-04-16T07:12:09.933Z,99.7787
2023-04-16T07:13:10.864Z,99.7835
2023-04-16T07:14:11.746Z,99.7889
2023-04-16T07:15:12.418Z,99.7659
2023-04-16T07:16:13.469Z,99.7493
2023-04-16T07:17:14.145Z,99.7205
2023-04-16T07:18:14.848Z,99.6743
2023-04-16T07:19:15.547Z,99.6681
2023-04-16T07:20:16.262Z,99.6727
2023-04-16T07:21:17.478Z,99.6956
2023-04-16T07:22:18.114Z,99.6981
2023-04-16T07:23:18.820Z,99.6551
2023-04-16T07:24:19.570Z,99.6606
2023-04-16T07:25:20.252Z,99.6508
2023-04-16T07:26:20.929Z,99.6658
2023-04-16T07:27:21.751Z,99.6256
2023-04-16T07:28:22.410Z,99.5503
2023-04-16T07:29:23.290Z,99.5061
2023-04-16T07:30:24.098Z,99.4658
2023-04-16T07:31:24.835Z,99.4035
2023-04-16T07:32:25.626Z,99.3958
2023-04-16T07:33:26.559Z,99.3647
2023-04-16T07:34:27.293Z,99.3365
2023-04-16T07:35:27.982Z,99.2908
2023-04-16T07:36:28.646Z,99.3054
2023-04-16T07:37:29.369Z,99.3213
2023-04-16T07:38:30.026Z,99.3421
2023-04-16T07:39:30.717Z,99.3743
2023-04-16T07:40:31.427Z,99.3464
2023-04-16T07:41:32.367Z,99.2931
2023-04-16T07:42:33.035Z,99.2378
2023-04-16T07:47:58.135Z,99.1637
2023-04-16T07:48:51.853Z,98.9452
2023-04-16T07:49:52.769Z,98.6913
2023-04-16T07:50:53.455Z,98.5144
2023-04-16T07:51:54.381Z,98.4755
2023-04-16T07:52:55.242Z,98.3773
2023-04-16T07:53:56.000Z,98.3197
2023-04-16T07:54:56.859Z,98.2922
2023-04-16T07:55:57.732Z,98.2660
2023-04-16T07:56:58.478Z,98.2918
2023-04-16T07:57:59.689Z,98.3673
2023-04-16T07:59:07.833Z,98.4502
2023-04-16T08:00:03.738Z,98.5125
2023-04-16T08:01:04.420Z,98.4456
2023-04-16T08:02:05.186Z,98.4714
2023-04-16T08:03:06.011Z,98.5590
2023-04-16T08:04:07.087Z,98.4676
2023-04-16T08:05:07.865Z,98.3776
2023-04-16T08:06:08.568Z,98.3915
2023-04-16T08:07:09.241Z,98.3676
2023-04-16T08:08:11.457Z,98.3545
2023-04-16T08:09:12.294Z,98.3262
2023-04-16T08:10:13.043Z,98.3856
2023-04-16T08:11:13.848Z,98.3837
2023-04-16T08:12:14.546Z,98.3443
2023-04-16T08:18:09.950Z,98.3488
2023-04-16T08:19:10.970Z,98.2049
2023-04-16T08:20:15.060Z,98.0257
2023-04-16T08:21:15.328Z,97.9254
2023-04-16T08:22:16.305Z,97.9351
2023-04-16T08:23:17.208Z,97.9946
2023-04-16T08:24:17.918Z,97.9433
2023-04-16T08:25:18.605Z,97.9357
2023-04-16T08:26:19.561Z,97.9267
2023-04-16T08:27:20.502Z,97.7147
2023-04-16T08:28:21.230Z,97.7262
2023-04-16T08:29:22.388Z,97.6941
2023-04-16T08:30:23.064Z,97.5752
2023-04-16T08:31:23.836Z,97.5728
2023-04-16T08:32:24.637Z,97.5777
2023-04-16T08:33:25.636Z,97.5950
2023-04-16T08:34:26.368Z,97.5328
2023-04-16T08:35:27.112Z,97.6471
2023-04-16T08:36:27.853Z,97.7438
2023-04-16T08:37:28.542Z,97.7470
2023-04-16T08:38:29.505Z,97.6090
2023-04-16T08:39:30.183Z,97.6015
2023-04-16T08:40:30.950Z,97.6565
2023-04-16T08:41:31.648Z,97.7491
2023-04-16T08:42:32.394Z,97.7104
2023-04-16T08:43:33.093Z,97.6220
2023-04-16T08:44:33.808Z,97.6637
2023-04-16T08:45:34.565Z,97.6751
2023-04-16T08:46:35.311Z,97.5832
2023-04-16T08:47:36.019Z,97.2326
2023-04-16T08:48:36.727Z,96.8899
2023-04-16T08:49:37.434Z,96.6059
2023-04-16T08:50:38.406Z,96.3728
2023-04-16T08:51:39.225Z,96.3705
2023-04-16T08:52:39.912Z,96.4664
2023-04-16T08:53:40.738Z,96.7397
2023-04-16T08:54:41.496Z,96.7043
2023-04-16T08:55:42.289Z,96.5827
2023-04-16T11:00:38.375Z,96.7076
2023-04-16T11:26:09.643Z,96.7453
2023-04-16T11:41:49.429Z,95.8968
2023-04-16T11:42:20.271Z,96.2448
2023-04-16T11:43:21.076Z,96.5498
2023-04-16T11:44:21.949Z,96.7040
2023-04-16T11:45:22.931Z,96.7631
2023-04-16T11:46:27.841Z,97.0147
2023-04-16T11:47:25.994Z,97.1501
2023-04-16T11:48:26.917Z,97.1963
2023-04-16T11:49:27.715Z,97.3973
2023-04-16T11:50:28.533Z,97.5691
2023-04-16T11:51:29.368Z,97.6313
2023-04-16T11:52:30.239Z,97.6164
2023-04-16T11:53:31.052Z,97.4607
2023-04-16T11:54:31.819Z,97.4658
2023-04-16T11:55:32.623Z,97.5456
2023-04-16T11:56:33.469Z,97.6897
2023-04-16T11:57:35.782Z,97.4918
2023-04-16T11:58:36.821Z,97.3340
2023-04-16T11:59:36.751Z,97.4104
2023-04-16T12:00:38.351Z,97.4275
2023-04-16T12:01:40.777Z,97.3086
2023-04-16T12:02:43.403Z,97.0813
2023-04-16T12:03:46.066Z,96.9193
2023-04-16T12:42:25.168Z,96.7063
2023-04-16T13:08:26.719Z,95.2560
2023-04-16T13:08:57.038Z,94.8501
2023-04-16T13:09:57.797Z,95.3541
2023-04-16T13:10:58.601Z,95.9586
2023-04-16T13:11:59.401Z,96.5885
2023-04-16T13:13:00.258Z,96.7972
2023-04-16T13:14:01.086Z,96.6062
2023-04-16T13:15:02.193Z,96.2801
2023-04-16T13:16:02.973Z,95.7485
2023-04-16T13:17:03.769Z,95.7228
2023-04-16T13:18:04.642Z,95.6094
2023-04-16T13:19:05.440Z,95.6621
2023-04-16T13:20:06.205Z,95.2855
2023-04-16T13:21:07.003Z,95.5215
2023-04-16T13:22:08.589Z,95.8134
2023-04-16T13:23:09.367Z,95.9556
2023-04-16T13:24:10.123Z,95.8985
2023-04-16T13:25:10.873Z,96.2890
2023-04-16T13:26:11.597Z,96.1571
2023-04-16T13:27:12.364Z,96.1162
2023-04-16T13:28:13.106Z,96.2995
2023-04-16T13:29:13.853Z,96.5332
2023-04-16T13:30:14.587Z,96.3210
2023-04-16T13:31:15.388Z,95.6753
2023-04-16T13:32:16.113Z,95.7171
2023-04-16T13:33:16.978Z,95.8872
2023-04-16T13:34:17.719Z,96.0557
2023-04-16T13:35:18.445Z,95.7293
2023-04-16T13:36:19.220Z,94.8476
2023-04-16T13:37:19.951Z,94.7528
2023-04-16T13:38:20.719Z,94.9473
2023-04-16T13:39:21.617Z,94.8307
2023-04-16T13:40:22.295Z,94.6269
2023-04-16T13:41:23.066Z,94.6540
2023-04-16T13:42:24.142Z,94.9481
2023-04-16T13:43:24.909Z,95.2019
2023-04-16T13:44:25.656Z,95.0761
2023-04-16T13:45:26.414Z,95.2742
2023-04-16T13:46:27.147Z,94.5191
2023-04-16T13:47:27.889Z,94.0332
2023-04-16T13:48:28.688Z,93.8677
2023-04-16T13:49:29.743Z,93.7233
2023-04-16T13:50:30.555Z,94.6318
2023-04-16T13:51:32.132Z,94.6255
2023-04-16T13:52:32.929Z,94.9341
2023-04-16T13:53:33.745Z,95.2614
2023-04-16T13:54:34.737Z,95.3821
2023-04-16T13:55:35.605Z,94.9284
2023-04-16T13:56:36.405Z,95.1045
2023-04-16T13:57:37.198Z,95.5204
2023-04-16T13:58:38.570Z,95.7422
2023-04-16T13:59:40.573Z,95.2754
2023-04-16T14:00:41.413Z,95.1078
2023-04-16T14:01:42.218Z,95.2549
2023-04-16T14:02:43.176Z,95.3080
2023-04-16T14:03:44.364Z,94.9965
2023-04-16T14:04:45.555Z,95.0684
2023-04-16T14:05:47.133Z,95.3729
2023-04-16T14:06:48.508Z,95.5326
2023-04-16T14:07:49.567Z,95.5696
2023-04-16T14:08:50.383Z,95.8092
2023-04-16T14:09:51.156Z,95.9899
2023-04-16T14:10:52.638Z,96.1130
2023-04-16T14:11:54.656Z,95.9302
2023-04-16T14:12:55.391Z,96.0002
2023-04-16T14:13:56.234Z,95.6659
2023-04-16T14:14:57.009Z,95.8600
2023-04-16T14:15:57.869Z,95.8293
2023-04-16T14:16:59.669Z,95.7123
2023-04-16T14:18:00.660Z,95.6177
2023-04-16T14:19:01.571Z,95.5473
2023-04-16T14:20:03.025Z,95.4496
2023-04-16T14:21:03.736Z,95.6629
2023-04-16T14:22:04.576Z,95.7705
2023-04-16T14:23:05.305Z,95.8614
2023-04-16T14:24:06.063Z,96.0211
2023-04-16T14:25:06.815Z,96.1309
2023-04-16T14:26:07.641Z,96.6363
2023-04-16T14:27:08.507Z,96.6726
2023-04-16T14:28:09.298Z,96.4762
2023-04-16T14:29:10.741Z,96.5427
2023-04-16T14:30:11.638Z,96.5977
2023-04-16T14:31:12.520Z,96.7040
2023-04-16T14:32:13.775Z,96.8215
2023-04-16T14:33:14.540Z,96.9305
2023-04-16T14:34:15.553Z,97.0138
2023-04-16T14:35:16.300Z,97.1435
2023-04-16T14:36:17.233Z,97.0417
2023-04-16T14:37:17.983Z,96.9897
2023-04-16T14:38:18.850Z,97.1706
2023-04-16T14:39:19.647Z,97.1370
2023-04-16T14:40:20.615Z,97.1526
2023-04-16T14:41:21.466Z,97.2087
2023-04-16T14:42:22.257Z,96.9438
2023-04-16T14:43:23.554Z,96.9098
2023-04-16T14:44:25.087Z,96.8207
2023-04-16T14:45:25.886Z,96.6212
2023-04-16T14:46:26.655Z,96.7494
2023-04-16T14:47:27.413Z,96.9145
2023-04-16T14:48:28.235Z,96.7961
2023-04-16T14:49:29.079Z,96.7106
2023-04-16T14:50:30.117Z,96.1553
2023-04-16T14:51:30.919Z,95.9159
2023-04-16T14:52:31.774Z,96.1898
2023-04-16T14:53:32.694Z,96.6106
2023-04-16T14:54:33.544Z,96.6725
2023-04-16T14:55:34.383Z,96.4911
2023-04-16T14:56:35.405Z,96.5727
2023-04-16T14:57:36.239Z,96.5498
2023-04-16T14:58:38.647Z,96.3285
2023-04-16T14:59:40.689Z,96.4534
2023-04-16T15:00:41.561Z,96.6551
2023-04-16T15:01:42.397Z,96.3934
2023-04-16T15:02:43.371Z,96.0724
2023-04-16T15:03:45.732Z,96.2930
2023-04-16T15:04:47.842Z,96.3058
2023-04-16T15:05:49.702Z,95.9901
2023-04-16T15:06:55.515Z,95.8324
